PWSweather.com
Personal Weather Stations
Station Observations
KVAGLENALL
West Henrico, Glen Allen, VA 23060-6503

West HenricoGlen Allen, VA 23060-6503

Lat: 37.6554, Lon: -77.5693

Elevation: 273

Station Type: Davis Vantage Pro II

www.glenallenweather.com

High Low Average
Temperature 59.3°F15.2°C 50.2°F10.1°C 54.0°F12.2°C
Dew Point 55.1°F12.8°C 45.3°F7.4°C 49.5°F9.7°C
Winds 15.0 mph 24.1 kmh Calm Calm 5.0 mph SSW8.0 kmh SSW
Wind Gusts 18.2 mph29.3 kmh -- 9.0 mph14.5 kmh
Humidity 90% 78% 85%
Pressure 30.03 in1016.9 mb 29.76 in1007.8 mb -
Precipitation 0.00 in0.0 mm - -
Hour Temp Dew Point Humidity Winds Wind Gusts Pressure Precip Precip Rate Daily Precip Total
12:30 AM 50.6°F10.3°C 45.6°F7.6°C 83% Calm Calm -- 30.03 in1016.9 mb 0.00 in0.0 mm 0.00 in0.0 mm 0.00 in0.0 mm
01:30 AM 50.8°F10.4°C 45.5°F7.5°C 82% 1.0 mph SSW1.6 kmh SSW 3.0 mph4.8 kmh 30.01 in1016.3 mb 0.00 in0.0 mm 0.00 in0.0 mm 0.00 in0.0 mm
02:30 AM 50.3°F10.2°C 45.3°F7.4°C 83% 2.0 mph S3.2 kmh S 4.0 mph6.4 kmh 30.01 in1016.3 mb 0.00 in0.0 mm 0.00 in0.0 mm 0.00 in0.0 mm
03:30 AM 51.8°F11.0°C 45.8°F7.7°C 80% 5.0 mph SSW8.0 kmh SSW 7.1 mph11.4 kmh 30.01 in1016.3 mb 0.00 in0.0 mm 0.00 in0.0 mm 0.00 in0.0 mm
04:30 AM 52.6°F11.4°C 45.9°F7.7°C 78% 4.0 mph SW6.4 kmh SW 5.1 mph8.2 kmh 29.98 in1015.2 mb 0.00 in0.0 mm 0.00 in0.0 mm 0.00 in0.0 mm
05:30 AM 52.4°F11.3°C 46.4°F8.0°C 80% 3.0 mph SW4.8 kmh SW 5.1 mph8.2 kmh 30.00 in1015.9 mb 0.00 in0.0 mm 0.00 in0.0 mm 0.00 in0.0 mm
06:30 AM 52.6°F11.4°C 46.3°F7.9°C 79% 4.0 mph S6.4 kmh S 6.1 mph9.8 kmh 29.98 in1015.2 mb 0.00 in0.0 mm 0.00 in0.0 mm 0.00 in0.0 mm
07:30 AM 52.7°F11.5°C 46.3°F7.9°C 79% 3.0 mph SSW4.8 kmh SSW 6.1 mph9.8 kmh 30.02 in1016.6 mb 0.00 in0.0 mm 0.00 in0.0 mm 0.00 in0.0 mm
08:30 AM 52.0°F11.1°C 47.3°F8.5°C 84% 3.0 mph S4.8 kmh S 4.0 mph6.4 kmh 30.01 in1016.3 mb 0.00 in0.0 mm 0.00 in0.0 mm 0.00 in0.0 mm
09:30 AM 51.6°F10.9°C 48.1°F8.9°C 88% 8.0 mph S12.9 kmh S 14.1 mph22.7 kmh 29.97 in1014.9 mb 0.01 in0.3 mm 0.00 in0.0 mm 0.01 in0.3 mm
10:30 AM 52.1°F11.2°C 48.6°F9.2°C 88% 8.0 mph ESE12.9 kmh ESE 10.1 mph16.3 kmh 29.92 in1013.2 mb 0.01 in0.3 mm 0.00 in0.0 mm 0.01 in0.3 mm
11:30 AM 53.0°F11.7°C 49.5°F9.7°C 88% 8.0 mph SSW12.9 kmh SSW 16.2 mph26.1 kmh 29.93 in1013.5 mb 0.00 in0.0 mm 0.00 in0.0 mm 0.01 in0.3 mm
12:30 PM 54.8°F12.7°C 51.0°F10.6°C 87% 5.0 mph SW8.0 kmh SW 11.1 mph17.9 kmh 29.87 in1011.5 mb 0.00 in0.0 mm 0.00 in0.0 mm 0.01 in0.3 mm
01:30 PM 56.2°F13.4°C 52.1°F11.2°C 86% 4.0 mph SSW6.4 kmh SSW 12.1 mph19.5 kmh 29.82 in1009.8 mb 0.00 in0.0 mm 0.00 in0.0 mm 0.01 in0.3 mm
02:30 PM 57.3°F14.1°C 53.1°F11.7°C 86% 9.0 mph S14.5 kmh S 11.1 mph17.9 kmh 29.77 in1008.1 mb 0.00 in0.0 mm 0.00 in0.0 mm 0.01 in0.3 mm
03:30 PM 58.9°F14.9°C 54.4°F12.4°C 85% 8.0 mph SSW12.9 kmh SSW 10.1 mph16.3 kmh 29.76 in1007.8 mb 0.00 in0.0 mm 0.00 in0.0 mm 0.01 in0.3 mm
04:30 PM 59.3°F15.2°C 55.1°F12.8°C 86% 6.0 mph S9.7 kmh S 10.1 mph16.3 kmh 29.77 in1008.1 mb 0.00 in0.0 mm 0.00 in0.0 mm 0.01 in0.3 mm
05:30 PM 59.0°F15.0°C 55.1°F12.8°C 87% 11.0 mph SW17.7 kmh SW 18.2 mph29.3 kmh 29.76 in1007.8 mb 0.00 in0.0 mm 0.00 in0.0 mm 0.01 in0.3 mm
06:30 PM 57.6°F14.2°C 54.4°F12.4°C 89% 15.0 mph SW24.1 kmh SW 16.2 mph26.1 kmh 29.76 in1007.8 mb 0.00 in0.0 mm 0.00 in0.0 mm 0.01 in0.3 mm
07:30 PM 57.0°F13.9°C 54.1°F12.3°C 90% 8.0 mph SW12.9 kmh SW 14.1 mph22.7 kmh 29.77 in1008.1 mb 0.00 in0.0 mm 0.00 in0.0 mm 0.01 in0.3 mm
08:30 PM 56.1°F13.4°C 52.9°F11.6°C 89% 7.0 mph SW11.3 kmh SW 10.1 mph16.3 kmh 29.79 in1008.8 mb 0.00 in0.0 mm 0.00 in0.0 mm 0.01 in0.3 mm
09:30 PM 55.8°F13.2°C 50.7°F10.4°C 83% 3.0 mph SW4.8 kmh SW 9.1 mph14.6 kmh 29.81 in1009.5 mb 0.00 in0.0 mm 0.00 in0.0 mm 0.01 in0.3 mm
10:30 PM 53.0°F11.7°C 48.0°F8.9°C 83% 3.0 mph WSW4.8 kmh WSW 4.0 mph6.4 kmh 29.83 in1010.2 mb 0.00 in0.0 mm 0.00 in0.0 mm 0.01 in0.3 mm
11:30 PM 50.2°F10.1°C 45.8°F7.7°C 85% 1.0 mph SW1.6 kmh SW 7.1 mph11.4 kmh 29.84 in1010.5 mb 0.00 in0.0 mm 0.00 in0.0 mm 0.01 in0.3 mm